Latest Weather Observations for Walpeup

IDV60801

Issued at 11:02 pm EDT Monday 27 March 2017 (issued every 30 minutes, with the page automatically refreshed every 10 minutes)

About weather observations | Map of weather stations | Latest weather observations for VIC | Other Formats
Station Details ID: 076064 Name: WALPEUP RESEARCH Lat: -35.12 Lon: 142.00 Height: 105.0 m
Data from the previous 72 hours. | See also: Recent months at Walpeup
Date/Time
EDT
Temp
°C
App
Temp
°C
Dew
Point
°C
Rel
Hum
%
Delta-T
°C
Wind Press
QNH
hPa
Press
MSL
hPa
Rain since
9am
mm
Dir  Spd
km/h
Gust
km/h
Spd
kts
Gust
kts
27/11:00pm 15.1 12.9 6.4 56 4.2 SSW 7 9 4 5 - - 0.0
27/10:30pm 16.7 14.2 6.5 51 5.0 SSW 9 15 5 8 - - 0.0
27/10:00pm 17.8 14.4 6.0 46 5.8 SW 13 20 7 11 - - 0.0
27/09:30pm 18.7 14.8 5.2 41 6.6 SW 15 22 8 12 - - 0.0
27/09:00pm 19.6 15.2 4.5 37 7.3 SW 17 24 9 13 - - 0.0
27/08:30pm 19.9 15.9 4.8 37 7.4 SW 15 19 8 10 - - 0.0
27/08:00pm 21.0 16.2 4.6 34 8.0 SW 19 26 10 14 - - 0.0
27/07:30pm 22.1 16.8 5.1 33 8.5 SW 22 28 12 15 - - 0.0
27/07:00pm 23.5 17.6 5.9 32 9.0 SW 26 37 14 20 - - 0.0
27/06:30pm 24.2 18.9 6.9 33 9.0 SW 24 33 13 18 - - 0.0
27/06:00pm 25.0 19.4 7.2 32 9.4 WSW 26 35 14 19 - - 0.0
27/05:30pm 24.9 20.3 8.0 34 9.0 SW 22 30 12 16 - - 0.0
27/05:00pm 24.9 19.9 8.0 34 9.0 WSW 24 41 13 22 - - 0.0
27/04:30pm 25.2 19.6 7.3 32 9.5 SW 26 37 14 20 - - 0.0
27/04:00pm 23.7 18.9 10.4 43 7.4 SW 26 33 14 18 - - 0.0
27/03:30pm 23.0 18.7 12.0 50 6.2 SW 26 37 14 20 - - 0.0
27/03:00pm 24.2 17.5 8.2 36 8.5 SW 33 52 18 28 - - 0.0
27/02:53pm 23.8 17.1 7.4 35 8.6 SW 32 52 17 28 - - 0.0
27/02:30pm 23.7 17.6 10.4 43 7.4 SW 33 48 18 26 - - 0.0
27/02:00pm 24.7 17.9 9.4 38 8.4 WSW 35 48 19 26 - - 0.0
27/01:50pm 25.5 19.2 9.7 37 8.7 WSW 33 54 18 29 - - 0.0
27/01:30pm 23.6 16.5 11.0 45 7.1 WSW 39 54 21 29 - - 0.0
27/01:00pm 27.2 19.9 11.7 38 8.9 WSW 41 61 22 33 - - 0.0
27/12:46pm 27.3 20.8 12.9 41 8.5 WSW 39 57 21 31 - - 0.0
27/12:30pm 27.0 19.9 12.3 40 8.5 WSW 41 54 22 29 - - 0.0
27/12:12pm 26.9 20.6 12.2 40 8.5 WSW 37 56 20 30 - - 0.0
27/12:00pm 25.9 19.6 13.4 46 7.4 WSW 39 52 21 28 - - 0.0
27/11:41am 25.8 18.8 12.6 44 7.7 WSW 41 61 22 33 - - 0.0
27/11:30am 25.7 19.5 11.5 41 8.1 W 35 50 19 27 - - 0.0
27/11:03am 26.9 22.0 12.5 40 8.4 WSW 30 48 16 26 - - 0.0
27/11:00am 27.0 21.7 12.6 41 8.4 WSW 32 48 17 26 - - 0.0
27/10:30am 27.8 22.8 15.1 46 7.7 WSW 35 52 19 28 - - 0.0
27/10:20am 28.4 23.6 14.6 43 8.4 W 33 52 18 28 - - 0.0
27/10:00am 28.6 22.7 13.7 40 8.9 WNW 37 54 20 29 - - 0.0
27/09:58am 30.0 24.4 13.3 36 10.0 WNW 35 54 19 29 - - 0.0
27/09:30am 29.4 23.5 12.3 34 10.0 NW 35 44 19 24 - - 0.0
27/09:00am 28.2 23.7 12.5 37 9.2 N 28 35 15 19 - - 0.0
27/08:30am 26.6 21.7 12.6 42 8.2 N 30 39 16 21 - - 0.0
27/08:00am 25.9 21.4 12.7 44 7.7 NNE 28 39 15 21 - - 0.0
27/07:30am 25.6 21.9 12.8 45 7.5 NNE 24 32 13 17 - - 0.0
27/07:00am 25.4 21.9 13.3 47 7.1 NNE 24 33 13 18 - - 0.0
27/06:30am 25.5 22.8 13.4 47 7.1 NNE 20 28 11 15 - - 0.0
27/06:00am 25.6 22.9 13.5 47 7.1 NNE 20 26 11 14 - - 0.0
27/05:30am 25.9 23.3 13.7 47 7.2 NNE 20 30 11 16 - - 0.0
27/05:00am 26.1 23.5 13.9 47 7.3 NNE 20 26 11 14 - - 0.0
27/04:30am 25.6 23.3 14.1 49 6.8 NE 19 28 10 15 - - 0.0
27/04:00am 25.3 23.0 14.1 50 6.7 NE 19 26 10 14 - - 0.0
27/03:30am 25.2 23.2 14.0 49 6.6 NE 17 22 9 12 - - 0.0
27/03:00am 25.2 23.1 13.7 49 6.8 NE 17 24 9 13 - - 0.0
27/02:30am 25.0 22.8 13.2 48 6.9 NE 17 24 9 13 - - 0.0
27/02:00am 25.2 22.9 13.1 47 7.1 NE 17 24 9 13 - - 0.0
27/01:30am 25.6 23.2 12.8 45 7.5 NE 17 22 9 12 - - 0.0
27/01:00am 25.7 23.8 12.9 45 7.5 NE 15 20 8 11 - - 0.0
27/12:30am 25.6 23.6 12.8 45 7.5 ENE 15 22 8 12 - - 0.0
27/12:00am 25.9 24.8 13.1 45 7.5 ENE 11 17 6 9 - - 0.0
 
Date/Time
EDT
Temp
°C
App
Temp
°C
Dew
Point
°C
Rel
Hum
%
Delta-T
°C
Wind Press
QNH
hPa
Press
MSL
hPa
Rain since
9am
mm
Dir  Spd
km/h
Gust
km/h
Spd
kts
Gust
kts
26/11:30pm 26.6 25.1 13.0 43 8.0 ENE 13 19 7 10 - - 0.0
26/11:00pm 27.1 25.5 12.7 41 8.4 ENE 13 19 7 10 - - 0.0
26/10:30pm 27.1 26.0 13.1 42 8.2 ENE 11 15 6 8 - - 0.0
26/10:00pm 27.4 26.3 13.0 41 8.5 ENE 11 17 6 9 - - 0.0
26/09:30pm 27.7 26.7 13.3 41 8.5 ENE 11 17 6 9 - - 0.0
26/09:00pm 27.8 26.8 13.3 40 8.6 E 11 19 6 10 - - 0.0
26/08:30pm 27.8 27.5 13.3 40 8.6 E 7 11 4 6 - - 0.0
26/08:00pm 28.4 28.0 13.1 39 9.1 E 7 11 4 6 - - 0.0
26/07:30pm 29.4 28.7 13.2 37 9.7 SE 9 15 5 8 - - 0.0
26/07:00pm 30.6 30.0 13.4 35 10.3 SE 9 11 5 6 - - 0.0
26/06:30pm 31.4 30.7 13.2 33 10.9 SSE 9 13 5 7 - - 0.0
26/06:00pm 31.3 30.9 13.1 33 10.9 SSE 7 11 4 6 - - 0.0
26/05:30pm 32.8 32.7 13.4 30 11.8 SW 6 11 3 6 - - 0.0
26/05:00pm 31.7 31.1 13.5 33 11.0 SW 9 17 5 9 - - 0.0
26/04:30pm 32.2 32.3 13.9 33 11.1 WNW 6 11 3 6 - - 0.0
26/04:00pm 32.4 32.4 13.6 32 11.4 W 6 13 3 7 - - 0.0
26/03:30pm 31.3 30.6 13.1 33 10.9 N 9 15 5 8 - - 0.0
26/03:00pm 31.9 31.6 13.2 32 11.3 NW 7 15 4 8 - - 0.0
26/02:30pm 30.7 30.4 12.6 33 10.7 NNW 6 9 3 5 - - 0.0
26/02:00pm 29.1 29.4 13.3 37 9.4 ESE 4 11 2 6 - - 0.0
26/01:30pm 28.3 28.6 14.5 43 8.4 NE 6 9 3 5 - - 0.0
26/01:00pm 26.7 27.5 14.8 48 7.2 NE 4 9 2 5 - - 0.0
26/12:30pm 26.1 26.8 14.6 49 6.9 NE 4 6 2 3 - - 0.0
26/12:00pm 25.6 26.4 15.9 55 5.9 E 6 9 3 5 - - 0.0
26/11:30am 24.6 25.5 16.1 59 5.2 ESE 6 11 3 6 - - 0.0
26/11:00am 23.8 24.7 16.1 62 4.7 ESE 6 7 3 4 - - 0.0
26/10:30am 23.5 24.3 15.8 62 4.7 SE 6 9 3 5 - - 0.0
26/10:00am 21.5 22.7 15.8 70 3.4 SE 4 7 2 4 - - 0.0
26/09:30am 20.9 21.6 15.7 72 3.1 SSE 6 7 3 4 - - 0.0
26/09:00am 19.8 19.7 15.9 78 2.3 S 11 13 6 7 - - 0.0
26/08:30am 18.6 19.0 16.2 86 1.4 S 9 11 5 6 - - 0.0
26/08:00am 17.0 17.6 15.2 89 1.1 SSW 6 7 3 4 - - 0.0
26/07:30am 17.0 18.6 14.8 87 1.3 CALM 0 0 0 0 - - 0.0
26/07:00am 17.7 19.0 15.1 85 1.5 WSW 2 4 1 2 - - 0.0
26/06:30am 18.3 19.0 15.6 84 1.6 SSW 6 7 3 4 - - 0.0
26/06:00am 18.5 19.6 15.6 83 1.7 SW 4 6 2 3 - - 0.0
26/05:30am 18.6 19.2 15.7 83 1.7 S 7 9 4 5 - - 0.0
26/05:00am 18.5 18.9 15.4 82 1.8 SSW 7 9 4 5 - - 0.0
26/04:30am 18.7 19.4 15.6 82 1.8 SSW 6 7 3 4 - - 0.0
26/04:00am 18.9 19.5 15.4 80 2.1 SSW 6 9 3 5 - - 0.0
26/03:30am 19.5 19.3 15.6 78 2.3 SSW 11 15 6 8 - - 0.0
26/03:00am 20.2 20.3 15.6 75 2.7 SW 9 13 5 7 - - 0.0
26/02:30am 20.9 20.7 15.7 72 3.1 SW 11 13 6 7 - - 0.0
26/02:00am 21.6 22.2 15.7 69 3.5 SW 7 9 4 5 - - 0.0
26/01:30am 22.1 22.0 15.9 68 3.7 SSW 11 13 6 7 - - 0.0
26/01:00am 22.6 22.8 15.7 65 4.2 SSW 9 15 5 8 - - 0.0
26/12:30am 23.0 22.8 15.6 63 4.5 SW 11 15 6 8 - - 0.0
26/12:00am 23.8 23.8 15.3 59 5.1 SW 9 13 5 7 - - 0.0
 
Date/Time
EDT
Temp
°C
App
Temp
°C
Dew
Point
°C
Rel
Hum
%
Delta-T
°C
Wind Press
QNH
hPa
Press
MSL
hPa
Rain since
9am
mm
Dir  Spd
km/h
Gust
km/h
Spd
kts
Gust
kts
25/11:30pm 24.0 24.3 15.0 57 5.4 SW 7 9 4 5 - - 0.0
25/11:00pm 24.8 24.3 14.9 54 5.9 SW 11 15 6 8 - - 0.0
25/10:30pm 25.0 25.1 14.5 52 6.3 WSW 7 11 4 6 - - 0.0
25/10:00pm 25.3 25.5 14.1 50 6.7 WSW 6 9 3 5 - - 0.0
25/09:30pm 25.9 25.9 13.7 47 7.2 W 6 7 3 4 - - 0.0
25/09:00pm 26.3 26.0 13.4 45 7.6 W 7 9 4 5 - - 0.0
25/08:30pm 26.7 26.6 13.8 45 7.7 WNW 7 9 4 5 - - 0.0
25/08:00pm 27.2 26.5 13.2 42 8.3 WNW 9 11 5 6 - - 0.0
25/07:30pm 28.5 27.5 12.4 37 9.4 WNW 9 11 5 6 - - 0.0
25/07:00pm 29.8 28.4 12.3 34 10.3 W 11 19 6 10 - - 0.0
25/06:30pm 30.6 28.4 12.0 32 10.9 W 15 20 8 11 - - 0.0
25/06:00pm 30.7 27.9 12.6 33 10.7 WSW 19 26 10 14 - - 0.0
25/05:30pm 31.3 28.5 12.6 31 11.1 WSW 19 32 10 17 - - 0.0
25/05:00pm 32.7 29.6 12.3 28 12.1 WSW 20 28 11 15 - - 0.0
25/04:30pm 32.7 29.8 12.3 28 12.1 W 19 26 10 14 - - 0.0
25/04:00pm 32.5 29.6 12.2 29 12.1 W 19 28 10 15 - - 0.0
25/03:30pm 33.8 31.2 13.3 29 12.4 WNW 19 30 10 16 - - 0.0
25/03:00pm 32.1 30.5 13.8 33 11.1 WNW 15 22 8 12 - - 0.0
25/02:30pm 31.9 30.2 13.6 32 11.1 NW 15 24 8 13 - - 0.0
25/02:00pm 32.3 30.9 14.4 33 11.0 W 15 28 8 15 - - 0.0
25/01:30pm 30.5 28.8 13.7 35 10.1 W 15 22 8 12 - - 0.0
25/01:00pm 31.6 30.3 14.7 36 10.4 WNW 15 22 8 12 - - 0.0
25/12:30pm 30.0 29.0 15.7 42 8.9 NW 15 22 8 12 - - 0.0
25/12:00pm 28.3 28.9 16.9 50 7.2 NNW 9 13 5 7 - - 0.0
25/11:30am 26.1 27.2 16.6 55 5.9 NNW 6 9 3 5 - - 0.0
25/11:00am 24.7 25.8 16.7 61 4.9 NNE 6 7 3 4 - - 0.0
25/10:30am 23.9 24.8 16.7 64 4.4 NNE 7 11 4 6 - - 0.0
25/10:00am 23.3 23.4 16.4 65 4.2 N 11 13 6 7 - - 0.0
25/09:30am 22.5 22.4 16.1 67 3.9 NNE 11 15 6 8 - - 0.0
25/09:00am 22.0 21.8 15.8 68 3.7 NE 11 15 6 8 - - 0.0
25/08:30am 21.5 21.1 15.3 68 3.7 NE 11 13 6 7 - - 0.0
25/08:00am 21.1 20.7 15.2 69 3.5 ENE 11 13 6 7 - - 0.0
25/07:30am 21.2 21.2 15.1 68 3.6 ENE 9 13 5 7 - - 0.0
25/07:00am 21.2 20.7 14.8 67 3.8 ENE 11 13 6 7 - - 0.0
25/06:30am 21.3 21.2 14.9 67 3.8 ENE 9 13 5 7 - - 0.0
25/06:00am 21.0 20.4 14.6 67 3.8 ENE 11 13 6 7 - - 0.0
25/05:30am 20.9 20.6 14.5 67 3.8 ENE 9 11 5 6 - - 0.0
25/05:00am 21.4 21.2 14.8 66 3.9 ENE 9 13 5 7 - - 0.0
25/04:30am 21.3 21.1 14.7 66 3.9 E 9 15 5 8 - - 0.0
25/04:00am 21.5 21.2 14.4 64 4.2 E 9 13 5 7 - - 0.0
25/03:30am 21.9 21.6 14.5 63 4.4 E 9 13 5 7 - - 0.0
25/03:00am 22.0 21.8 14.6 63 4.4 E 9 13 5 7 - - 0.0
25/02:30am 22.0 21.9 14.9 64 4.2 ESE 9 11 5 6 - - 0.0
25/02:00am 21.6 21.8 14.7 65 4.1 E 7 11 4 6 - - 0.0
25/01:30am 22.0 22.3 14.9 64 4.2 ESE 7 11 4 6 - - 0.0
25/01:00am 22.3 22.3 15.2 64 4.2 E 9 13 5 7 - - 0.0
25/12:30am 22.4 22.3 15.0 63 4.4 E 9 11 5 6 - - 0.0
25/12:00am 22.4 22.4 15.3 64 4.3 E 9 11 5 6 - - 0.0
 
Date/Time
EDT
Temp
°C
App
Temp
°C
Dew
Point
°C
Rel
Hum
%
Delta-T
°C
Wind Press
QNH
hPa
Press
MSL
hPa
Rain since
9am
mm
Dir  Spd
km/h
Gust
km/h
Spd
kts
Gust
kts
24/11:30pm 22.5 22.8 15.1 63 4.4 E 7 9 4 5 - - 0.0

Other Formats:

Comma delimited format used in spreadsheet applications
http://www.bom.gov.au/fwo/IDV60801/IDV60801.95831.axf

JavaScript Object Notation format (JSON) in row-major order
http://www.bom.gov.au/fwo/IDV60801/IDV60801.95831.json